Guilden Sutton, United Kingdom
Current Conditions -  °F | °C
As of 9:50 AM on Friday 31 Oct 2014 (Local Time) from EGNR Reporting Station
Clear Clear  
Wind Chill: 17°   Ceiling: Unl
Heat Index: 17°   Visibility: 5mi
Dew Point: 15°   Wind: 12mph
Humidity: 88%   Direction: 180°S
Pressure: 29.88"   Gusts: NA
Location:  53.21°N, 2.83°W
Report Text: EGNR 310950Z 18010KT 8000 NSC 17/15 Q1012
Loading
Personal Weather Stations






























Interactive Weather Map
Tropical Storm Tracking
New forecast layout! Learn more

10-Day Weather Forecast

Advertisements
Track Severe Weather on mobile